ARG1691 SAZS-SABE
Flight info
| Callsign | ARG1691 |
|---|---|
| Flight time | 1h 43m |
| Altitude | 37000 |
| Route | LIMAY2G LIMAY UW26 EGUNO UZ109 ISMIL UT655 ASADA ASADA8Q |
| Aircraft | B738/M-SDE2E3FGHIRWXY/LB1 |
Departure
| Time | 2026-04-21 02:25 |
|---|---|
| Airport | Teniente Luis Candelaria International Airport (SAZS) |
Arrival
| Time | 2026-04-21 04:08 |
|---|---|
| Airport | Aeroparque Jorge Newbery (SABE) |
| Time | Latitude | Longitude | Altitude | Speed | Heading |
|---|---|---|---|---|---|
| 2026-04-21 01:48 | -41.14652 | -71.16224 | 2748 ft | 0 kts | 72° |
| 2026-04-21 02:14 | -41.14655 | -71.16238 | 2748 ft | 4 kts | 59° |
| 2026-04-21 02:14 | -41.14673 | -71.16260 | 2751 ft | 4 kts | 17° |
| 2026-04-21 02:14 | -41.14699 | -71.16265 | 2751 ft | 4 kts | 357° |
| 2026-04-21 02:15 | -41.14726 | -71.16261 | 2748 ft | 4 kts | 352° |
| 2026-04-21 02:15 | -41.14749 | -71.16258 | 2750 ft | 4 kts | 348° |
| 2026-04-21 02:15 | -41.14773 | -71.16245 | 2749 ft | 4 kts | 320° |
| 2026-04-21 02:15 | -41.14791 | -71.16219 | 2752 ft | 4 kts | 298° |
| 2026-04-21 02:16 | -41.14795 | -71.16206 | 2748 ft | 0 kts | 295° |
| 2026-04-21 02:20 | -41.14789 | -71.16224 | 2752 ft | 4 kts | 294° |
| 2026-04-21 02:20 | -41.14785 | -71.16268 | 2751 ft | 5 kts | 247° |
| 2026-04-21 02:21 | -41.14814 | -71.16294 | 2751 ft | 5 kts | 205° |
| 2026-04-21 02:21 | -41.14846 | -71.16313 | 2751 ft | 5 kts | 204° |
| 2026-04-21 02:21 | -41.14877 | -71.16332 | 2754 ft | 5 kts | 205° |
| 2026-04-21 02:21 | -41.14898 | -71.16379 | 2752 ft | 7 kts | 281° |
| 2026-04-21 02:22 | -41.14876 | -71.16446 | 2753 ft | 10 kts | 295° |
| 2026-04-21 02:22 | -41.14840 | -71.16550 | 2750 ft | 15 kts | 295° |
| 2026-04-21 02:22 | -41.14795 | -71.16681 | 2749 ft | 15 kts | 294° |
| 2026-04-21 02:22 | -41.14749 | -71.16807 | 2749 ft | 14 kts | 295° |
| 2026-04-21 02:23 | -41.14710 | -71.16899 | 2749 ft | 10 kts | 315° |
| 2026-04-21 02:23 | -41.14663 | -71.16966 | 2750 ft | 9 kts | 313° |
| 2026-04-21 02:23 | -41.14674 | -71.17003 | 2751 ft | 6 kts | 175° |
| 2026-04-21 02:23 | -41.14692 | -71.16975 | 2750 ft | 0 kts | 114° |
| 2026-04-21 02:24 | -41.14703 | -71.16940 | 2749 ft | 23 kts | 115° |
| 2026-04-21 02:24 | -41.14889 | -71.16411 | 2754 ft | 101 kts | 115° |
| 2026-04-21 02:24 | -41.15281 | -71.15284 | 2754 ft | 166 kts | 116° |
| 2026-04-21 02:24 | -41.15806 | -71.13771 | 3304 ft | 181 kts | 116° |
| 2026-04-21 02:25 | -41.16359 | -71.12280 | 4372 ft | 178 kts | 118° |
| 2026-04-21 02:25 | -41.16929 | -71.10743 | 5013 ft | 199 kts | 117° |
| 2026-04-21 02:25 | -41.17584 | -71.09011 | 5364 ft | 217 kts | 118° |
| 2026-04-21 02:25 | -41.18031 | -71.07783 | 5540 ft | 231 kts | 112° |
| 2026-04-21 02:26 | -41.18248 | -71.04881 | 6173 ft | 244 kts | 77° |
| 2026-04-21 02:26 | -41.17882 | -71.03436 | 6463 ft | 256 kts | 62° |
| 2026-04-21 02:26 | -41.16802 | -71.01551 | 7086 ft | 260 kts | 37° |
| 2026-04-21 02:26 | -41.15228 | -71.00421 | 7866 ft | 258 kts | 14° |
| 2026-04-21 02:27 | -41.13465 | -70.99951 | 8632 ft | 259 kts | 8° |
| 2026-04-21 02:27 | -41.11687 | -70.99563 | 9481 ft | 259 kts | 8° |
| 2026-04-21 02:27 | -41.09877 | -70.99139 | 10066 ft | 270 kts | 10° |
| 2026-04-21 02:27 | -41.08043 | -70.98571 | 10800 ft | 269 kts | 14° |
| 2026-04-21 02:28 | -41.06222 | -70.97908 | 11467 ft | 276 kts | 15° |
| 2026-04-21 02:28 | -41.04363 | -70.97143 | 12060 ft | 282 kts | 18° |
| 2026-04-21 02:28 | -41.02507 | -70.96261 | 12726 ft | 287 kts | 27° |
| 2026-04-21 02:28 | -41.00952 | -70.94510 | 12915 ft | 307 kts | 58° |
| 2026-04-21 02:29 | -40.99770 | -70.92059 | 13106 ft | 329 kts | 50° |
| 2026-04-21 02:29 | -40.98058 | -70.89898 | 13300 ft | 350 kts | 41° |
| 2026-04-21 02:29 | -40.96155 | -70.87751 | 13603 ft | 367 kts | 41° |
| 2026-04-21 02:29 | -40.94203 | -70.85520 | 14156 ft | 374 kts | 42° |
| 2026-04-21 02:30 | -40.92247 | -70.83233 | 14817 ft | 376 kts | 43° |
| 2026-04-21 02:30 | -40.90297 | -70.80915 | 15514 ft | 378 kts | 43° |
| 2026-04-21 02:30 | -40.88349 | -70.78576 | 16163 ft | 380 kts | 44° |
| 2026-04-21 02:30 | -40.86387 | -70.76207 | 16784 ft | 384 kts | 44° |
| 2026-04-21 02:31 | -40.84413 | -70.73816 | 17425 ft | 387 kts | 44° |
| 2026-04-21 02:31 | -40.82423 | -70.71406 | 18059 ft | 390 kts | 45° |
| 2026-04-21 02:31 | -40.80415 | -70.68976 | 18660 ft | 393 kts | 45° |
| 2026-04-21 02:31 | -40.78392 | -70.66531 | 19176 ft | 396 kts | 45° |
| 2026-04-21 02:32 | -40.76349 | -70.64067 | 19669 ft | 400 kts | 45° |
| 2026-04-21 02:32 | -40.74288 | -70.61567 | 20156 ft | 404 kts | 47° |
| 2026-04-21 02:32 | -40.72327 | -70.58913 | 20644 ft | 406 kts | 50° |
| 2026-04-21 02:32 | -40.70421 | -70.56145 | 21132 ft | 409 kts | 51° |
| 2026-04-21 02:33 | -40.68518 | -70.53344 | 21621 ft | 412 kts | 51° |
| 2026-04-21 02:33 | -40.66590 | -70.50531 | 22154 ft | 414 kts | 51° |
| 2026-04-21 02:33 | -40.64641 | -70.47726 | 22648 ft | 417 kts | 51° |
| 2026-04-21 02:33 | -40.62667 | -70.44910 | 23101 ft | 420 kts | 51° |
| 2026-04-21 02:34 | -40.60674 | -70.42074 | 23546 ft | 424 kts | 51° |
| 2026-04-21 02:34 | -40.58769 | -70.39112 | 23957 ft | 425 kts | 56° |
| 2026-04-21 02:34 | -40.56972 | -70.36019 | 24320 ft | 427 kts | 57° |
| 2026-04-21 02:34 | -40.55208 | -70.32870 | 24672 ft | 430 kts | 58° |
| 2026-04-21 02:35 | -40.53437 | -70.29685 | 25008 ft | 433 kts | 58° |
| 2026-04-21 02:35 | -40.51647 | -70.26478 | 25337 ft | 437 kts | 57° |
| 2026-04-21 02:35 | -40.49834 | -70.23258 | 25669 ft | 439 kts | 57° |
| 2026-04-21 02:35 | -40.48003 | -70.20029 | 26020 ft | 443 kts | 57° |
| 2026-04-21 02:36 | -40.46153 | -70.16788 | 26399 ft | 444 kts | 57° |
| 2026-04-21 02:36 | -40.44292 | -70.13541 | 26784 ft | 446 kts | 57° |
| 2026-04-21 02:36 | -40.42421 | -70.10282 | 27080 ft | 449 kts | 57° |
| 2026-04-21 02:36 | -40.40531 | -70.06995 | 27357 ft | 453 kts | 57° |
| 2026-04-21 02:37 | -40.38630 | -70.03695 | 27642 ft | 455 kts | 57° |
| 2026-04-21 02:37 | -40.36714 | -70.00370 | 27931 ft | 458 kts | 57° |
| 2026-04-21 02:37 | -40.34786 | -69.97029 | 28227 ft | 461 kts | 57° |
| 2026-04-21 02:37 | -40.32843 | -69.93665 | 28504 ft | 464 kts | 57° |
| 2026-04-21 02:38 | -40.30882 | -69.90273 | 28774 ft | 467 kts | 57° |
| 2026-04-21 02:38 | -40.28916 | -69.86876 | 29053 ft | 469 kts | 57° |
| 2026-04-21 02:38 | -40.26938 | -69.83462 | 29366 ft | 471 kts | 57° |
| 2026-04-21 02:38 | -40.24958 | -69.80049 | 29686 ft | 472 kts | 57° |
| 2026-04-21 02:39 | -40.22960 | -69.76609 | 29924 ft | 475 kts | 57° |
| 2026-04-21 02:39 | -40.20954 | -69.73156 | 30166 ft | 478 kts | 57° |
| 2026-04-21 02:39 | -40.18935 | -69.69685 | 30373 ft | 481 kts | 57° |
| 2026-04-21 02:39 | -40.16911 | -69.66212 | 30679 ft | 480 kts | 57° |
| 2026-04-21 02:40 | -40.14893 | -69.62756 | 31077 ft | 477 kts | 57° |
| 2026-04-21 02:40 | -40.12882 | -69.59316 | 31459 ft | 475 kts | 58° |
| 2026-04-21 02:40 | -40.10880 | -69.55892 | 31760 ft | 474 kts | 58° |
| 2026-04-21 02:40 | -40.08874 | -69.52463 | 32084 ft | 474 kts | 58° |
| 2026-04-21 02:41 | -40.06883 | -69.49068 | 32640 ft | 467 kts | 58° |
| 2026-04-21 02:41 | -40.04921 | -69.45727 | 33127 ft | 462 kts | 58° |
| 2026-04-21 02:41 | -40.02968 | -69.42400 | 33415 ft | 462 kts | 58° |
| 2026-04-21 02:41 | -40.01014 | -69.39069 | 33616 ft | 464 kts | 58° |
| 2026-04-21 02:42 | -39.99052 | -69.35730 | 33854 ft | 464 kts | 58° |
| 2026-04-21 02:42 | -39.97091 | -69.32399 | 34185 ft | 462 kts | 58° |
| 2026-04-21 02:42 | -39.95140 | -69.29089 | 34494 ft | 460 kts | 58° |
| 2026-04-21 02:42 | -39.93192 | -69.25789 | 34722 ft | 460 kts | 58° |
| 2026-04-21 02:43 | -39.91241 | -69.22485 | 34882 ft | 461 kts | 58° |
| 2026-04-21 02:43 | -39.89288 | -69.19181 | 35099 ft | 461 kts | 58° |
| 2026-04-21 02:43 | -39.87335 | -69.15884 | 35451 ft | 457 kts | 58° |
| 2026-04-21 02:43 | -39.85400 | -69.12621 | 35760 ft | 454 kts | 57° |
| 2026-04-21 02:44 | -39.83466 | -69.09360 | 35854 ft | 457 kts | 57° |
| 2026-04-21 02:44 | -39.79560 | -69.02778 | 36077 ft | 461 kts | 57° |
| 2026-04-21 02:44 | -39.77604 | -68.99493 | 36327 ft | 459 kts | 57° |
| 2026-04-21 02:45 | -39.75652 | -68.96217 | 36547 ft | 458 kts | 57° |
| 2026-04-21 02:45 | -39.73697 | -68.92940 | 36689 ft | 459 kts | 56° |
| 2026-04-21 02:45 | -39.71766 | -68.89703 | 36828 ft | 460 kts | 56° |
| 2026-04-21 02:45 | -39.69781 | -68.86382 | 37008 ft | 459 kts | 56° |
| 2026-04-21 02:46 | -39.67849 | -68.83152 | 37206 ft | 459 kts | 55° |
| 2026-04-21 02:46 | -39.63881 | -68.76534 | 37215 ft | 463 kts | 55° |
| 2026-04-21 02:47 | -39.59934 | -68.69963 | 37206 ft | 460 kts | 55° |
| 2026-04-21 02:47 | -39.56013 | -68.63438 | 37214 ft | 457 kts | 55° |
| 2026-04-21 02:48 | -39.52132 | -68.56997 | 37218 ft | 456 kts | 54° |
| 2026-04-21 02:48 | -39.48230 | -68.50534 | 37238 ft | 456 kts | 54° |
| 2026-04-21 02:49 | -39.44321 | -68.44070 | 37227 ft | 457 kts | 54° |
| 2026-04-21 02:49 | -39.40395 | -68.37600 | 37217 ft | 458 kts | 54° |
| 2026-04-21 02:50 | -39.36455 | -68.31113 | 37221 ft | 459 kts | 54° |
| 2026-04-21 02:50 | -39.32497 | -68.24615 | 37223 ft | 461 kts | 53° |
| 2026-04-21 02:51 | -39.28515 | -68.18096 | 37224 ft | 463 kts | 53° |
| 2026-04-21 02:51 | -39.24522 | -68.11569 | 37217 ft | 464 kts | 53° |
| 2026-04-21 02:52 | -39.20516 | -68.05033 | 37210 ft | 465 kts | 52° |
| 2026-04-21 02:52 | -39.16492 | -67.98485 | 37220 ft | 466 kts | 52° |
| 2026-04-21 02:53 | -39.12469 | -67.91943 | 37216 ft | 466 kts | 52° |
| 2026-04-21 02:53 | -39.08432 | -67.85392 | 37217 ft | 467 kts | 52° |
| 2026-04-21 02:54 | -39.04390 | -67.78850 | 37216 ft | 467 kts | 52° |
| 2026-04-21 02:54 | -39.00346 | -67.72317 | 37217 ft | 467 kts | 52° |
| 2026-04-21 02:55 | -38.96300 | -67.65794 | 37213 ft | 466 kts | 52° |
| 2026-04-21 02:55 | -38.92250 | -67.59279 | 37215 ft | 466 kts | 52° |
| 2026-04-21 02:56 | -38.88205 | -67.52784 | 37223 ft | 466 kts | 51° |
| 2026-04-21 02:56 | -38.82136 | -67.43073 | 37221 ft | 465 kts | 51° |
| 2026-04-21 02:57 | -38.78096 | -67.36613 | 37219 ft | 464 kts | 51° |
| 2026-04-21 02:57 | -38.74052 | -67.30163 | 37221 ft | 464 kts | 51° |
| 2026-04-21 02:58 | -38.70005 | -67.23724 | 37219 ft | 464 kts | 51° |
| 2026-04-21 02:58 | -38.65958 | -67.17298 | 37226 ft | 464 kts | 50° |
| 2026-04-21 02:59 | -38.61905 | -67.10875 | 37222 ft | 464 kts | 50° |
| 2026-04-21 02:59 | -38.57847 | -67.04456 | 37213 ft | 464 kts | 49° |
| 2026-04-21 03:00 | -38.53788 | -66.98048 | 37227 ft | 464 kts | 49° |
| 2026-04-21 03:00 | -38.49717 | -66.91636 | 37226 ft | 465 kts | 49° |
| 2026-04-21 03:01 | -38.45641 | -66.85224 | 37226 ft | 466 kts | 48° |
| 2026-04-21 03:01 | -38.41550 | -66.78808 | 37224 ft | 466 kts | 48° |
| 2026-04-21 03:02 | -38.37456 | -66.72392 | 37223 ft | 467 kts | 48° |
| 2026-04-21 03:02 | -38.33425 | -66.65895 | 37215 ft | 469 kts | 54° |
| 2026-04-21 03:03 | -38.30257 | -66.58597 | 37220 ft | 471 kts | 60° |
| 2026-04-21 03:03 | -38.27222 | -66.51204 | 37219 ft | 471 kts | 59° |
| 2026-04-21 03:04 | -38.24154 | -66.43829 | 37213 ft | 472 kts | 58° |
| 2026-04-21 03:04 | -38.21052 | -66.36477 | 37231 ft | 472 kts | 58° |
| 2026-04-21 03:05 | -38.17933 | -66.29131 | 37229 ft | 473 kts | 58° |
| 2026-04-21 03:05 | -38.14804 | -66.21778 | 37217 ft | 473 kts | 58° |
| 2026-04-21 03:06 | -38.11666 | -66.14419 | 37230 ft | 474 kts | 58° |
| 2026-04-21 03:06 | -38.09057 | -66.08311 | 37228 ft | 474 kts | 58° |
| 2026-04-21 03:07 | -38.05904 | -66.00948 | 37230 ft | 475 kts | 58° |
| 2026-04-21 03:07 | -38.02747 | -65.93590 | 37233 ft | 475 kts | 58° |
| 2026-04-21 03:08 | -37.99584 | -65.86234 | 37227 ft | 475 kts | 57° |
| 2026-04-21 03:08 | -37.96414 | -65.78881 | 37236 ft | 476 kts | 57° |
| 2026-04-21 03:09 | -37.93236 | -65.71526 | 37237 ft | 476 kts | 57° |
| 2026-04-21 03:09 | -37.90047 | -65.64163 | 37234 ft | 477 kts | 57° |
| 2026-04-21 03:10 | -37.86851 | -65.56799 | 37225 ft | 478 kts | 57° |
| 2026-04-21 03:10 | -37.83643 | -65.49424 | 37238 ft | 478 kts | 56° |
| 2026-04-21 03:11 | -37.80427 | -65.42045 | 37220 ft | 479 kts | 56° |
| 2026-04-21 03:11 | -37.77202 | -65.34671 | 37230 ft | 480 kts | 56° |
| 2026-04-21 03:12 | -37.73956 | -65.27271 | 37217 ft | 482 kts | 56° |
| 2026-04-21 03:12 | -37.70701 | -65.19858 | 37235 ft | 483 kts | 56° |
| 2026-04-21 03:13 | -37.67431 | -65.12422 | 37244 ft | 485 kts | 55° |
| 2026-04-21 03:13 | -37.64144 | -65.04970 | 37234 ft | 487 kts | 55° |
| 2026-04-21 03:14 | -37.60838 | -64.97490 | 37222 ft | 488 kts | 55° |
| 2026-04-21 03:14 | -37.57525 | -64.90014 | 37227 ft | 489 kts | 55° |
| 2026-04-21 03:15 | -37.54204 | -64.82535 | 37227 ft | 489 kts | 55° |
| 2026-04-21 03:15 | -37.50878 | -64.75063 | 37226 ft | 488 kts | 55° |
| 2026-04-21 03:16 | -37.47556 | -64.67618 | 37222 ft | 487 kts | 55° |
| 2026-04-21 03:16 | -37.44236 | -64.60195 | 37224 ft | 486 kts | 55° |
| 2026-04-21 03:17 | -37.40919 | -64.52793 | 37222 ft | 485 kts | 55° |
| 2026-04-21 03:17 | -37.37604 | -64.45414 | 37201 ft | 484 kts | 55° |
| 2026-04-21 03:18 | -37.34294 | -64.38061 | 37221 ft | 483 kts | 54° |
| 2026-04-21 03:18 | -37.30963 | -64.30731 | 37206 ft | 483 kts | 54° |
| 2026-04-21 03:19 | -37.27610 | -64.23419 | 37208 ft | 484 kts | 54° |
| 2026-04-21 03:19 | -37.24241 | -64.16086 | 37211 ft | 485 kts | 54° |
| 2026-04-21 03:20 | -37.20864 | -64.08742 | 37204 ft | 487 kts | 54° |
| 2026-04-21 03:20 | -37.17469 | -64.01369 | 37198 ft | 488 kts | 53° |
| 2026-04-21 03:21 | -37.14067 | -63.93995 | 37200 ft | 489 kts | 53° |
| 2026-04-21 03:21 | -37.10650 | -63.86607 | 37195 ft | 490 kts | 53° |
| 2026-04-21 03:22 | -37.07221 | -63.79211 | 37196 ft | 491 kts | 53° |
| 2026-04-21 03:22 | -37.03789 | -63.71822 | 37171 ft | 491 kts | 53° |
| 2026-04-21 03:23 | -37.00358 | -63.64453 | 37179 ft | 490 kts | 53° |
| 2026-04-21 03:23 | -36.96930 | -63.57106 | 37186 ft | 489 kts | 53° |
| 2026-04-21 03:24 | -36.93502 | -63.49777 | 37185 ft | 488 kts | 53° |
| 2026-04-21 03:24 | -36.90082 | -63.42481 | 37153 ft | 486 kts | 52° |
| 2026-04-21 03:25 | -36.86666 | -63.35210 | 37173 ft | 485 kts | 52° |
| 2026-04-21 03:25 | -36.83243 | -63.27943 | 37171 ft | 485 kts | 52° |
| 2026-04-21 03:26 | -36.79816 | -63.20684 | 37179 ft | 486 kts | 52° |
| 2026-04-21 03:26 | -36.76378 | -63.13413 | 37165 ft | 487 kts | 52° |
| 2026-04-21 03:27 | -36.72932 | -63.06143 | 37161 ft | 487 kts | 52° |
| 2026-04-21 03:27 | -36.69476 | -62.98868 | 37161 ft | 488 kts | 52° |
| 2026-04-21 03:28 | -36.66007 | -62.91580 | 37161 ft | 490 kts | 52° |
| 2026-04-21 03:28 | -36.62524 | -62.84280 | 37158 ft | 491 kts | 52° |
| 2026-04-21 03:29 | -36.59032 | -62.76974 | 37158 ft | 491 kts | 51° |
| 2026-04-21 03:29 | -36.55537 | -62.69679 | 37150 ft | 491 kts | 51° |
| 2026-04-21 03:30 | -36.52032 | -62.62379 | 37150 ft | 492 kts | 51° |
| 2026-04-21 03:30 | -36.48522 | -62.55084 | 37149 ft | 492 kts | 51° |
| 2026-04-21 03:31 | -36.45009 | -62.47798 | 37147 ft | 491 kts | 51° |
| 2026-04-21 03:31 | -36.41496 | -62.40529 | 37140 ft | 491 kts | 51° |
| 2026-04-21 03:32 | -36.37982 | -62.33275 | 37137 ft | 490 kts | 51° |
| 2026-04-21 03:32 | -36.34464 | -62.26028 | 37132 ft | 490 kts | 51° |
| 2026-04-21 03:33 | -36.30944 | -62.18790 | 37125 ft | 489 kts | 51° |
| 2026-04-21 03:33 | -36.27427 | -62.11574 | 37125 ft | 489 kts | 51° |
| 2026-04-21 03:34 | -36.23908 | -62.04369 | 37130 ft | 488 kts | 51° |
| 2026-04-21 03:34 | -36.20388 | -61.97179 | 37121 ft | 488 kts | 50° |
| 2026-04-21 03:35 | -36.16870 | -61.90008 | 37099 ft | 487 kts | 50° |
| 2026-04-21 03:35 | -36.13348 | -61.82840 | 37113 ft | 487 kts | 50° |
| 2026-04-21 03:36 | -36.09830 | -61.75696 | 37121 ft | 487 kts | 50° |
| 2026-04-21 03:36 | -36.06310 | -61.68549 | 37124 ft | 486 kts | 50° |
| 2026-04-21 03:37 | -36.02788 | -61.61409 | 37119 ft | 486 kts | 50° |
| 2026-04-21 03:37 | -35.99267 | -61.54283 | 37108 ft | 486 kts | 50° |
| 2026-04-21 03:38 | -35.95740 | -61.47163 | 37112 ft | 486 kts | 50° |
| 2026-04-21 03:38 | -35.92203 | -61.40037 | 37113 ft | 487 kts | 50° |
| 2026-04-21 03:39 | -35.88658 | -61.32906 | 37087 ft | 488 kts | 50° |
| 2026-04-21 03:39 | -35.85111 | -61.25756 | 37102 ft | 489 kts | 50° |
| 2026-04-21 03:40 | -35.81571 | -61.18594 | 37099 ft | 490 kts | 50° |
| 2026-04-21 03:40 | -35.78025 | -61.11431 | 37100 ft | 490 kts | 50° |
| 2026-04-21 03:41 | -35.74470 | -61.04267 | 37070 ft | 490 kts | 50° |
| 2026-04-21 03:41 | -35.70912 | -60.97115 | 37091 ft | 490 kts | 49° |
| 2026-04-21 03:42 | -35.67347 | -60.89967 | 37095 ft | 490 kts | 49° |
| 2026-04-21 03:42 | -35.63778 | -60.82825 | 37005 ft | 492 kts | 49° |
| 2026-04-21 03:43 | -35.61972 | -60.79225 | 36466 ft | 497 kts | 50° |
| 2026-04-21 03:43 | -35.60189 | -60.75667 | 35936 ft | 494 kts | 50° |
| 2026-04-21 03:43 | -35.58366 | -60.72027 | 35359 ft | 493 kts | 50° |
| 2026-04-21 03:43 | -35.56603 | -60.68508 | 34969 ft | 488 kts | 50° |
| 2026-04-21 03:44 | -35.54833 | -60.64977 | 34516 ft | 484 kts | 50° |
| 2026-04-21 03:44 | -35.53071 | -60.61469 | 34101 ft | 480 kts | 50° |
| 2026-04-21 03:44 | -35.51325 | -60.57998 | 33627 ft | 477 kts | 50° |
| 2026-04-21 03:44 | -35.49586 | -60.54548 | 33175 ft | 473 kts | 50° |
| 2026-04-21 03:45 | -35.47862 | -60.51131 | 32744 ft | 469 kts | 50° |
| 2026-04-21 03:45 | -35.46152 | -60.47747 | 32320 ft | 465 kts | 50° |
| 2026-04-21 03:45 | -35.44455 | -60.44389 | 31887 ft | 461 kts | 50° |
| 2026-04-21 03:45 | -35.42770 | -60.41060 | 31493 ft | 457 kts | 50° |
| 2026-04-21 03:46 | -35.41102 | -60.37766 | 31098 ft | 453 kts | 50° |
| 2026-04-21 03:46 | -35.39448 | -60.34505 | 30705 ft | 449 kts | 50° |
| 2026-04-21 03:46 | -35.37804 | -60.31267 | 30313 ft | 446 kts | 50° |
| 2026-04-21 03:46 | -35.36174 | -60.28058 | 29875 ft | 442 kts | 50° |
| 2026-04-21 03:47 | -35.34553 | -60.24871 | 29419 ft | 438 kts | 50° |
| 2026-04-21 03:47 | -35.32949 | -60.21719 | 29008 ft | 434 kts | 50° |
| 2026-04-21 03:47 | -35.31362 | -60.18602 | 28589 ft | 429 kts | 50° |
| 2026-04-21 03:47 | -35.29790 | -60.15517 | 28171 ft | 425 kts | 50° |
| 2026-04-21 03:48 | -35.28235 | -60.12469 | 27796 ft | 420 kts | 50° |
| 2026-04-21 03:48 | -35.26694 | -60.09451 | 27385 ft | 417 kts | 50° |
| 2026-04-21 03:48 | -35.25165 | -60.06462 | 26993 ft | 413 kts | 50° |
| 2026-04-21 03:48 | -35.24137 | -60.04454 | 26729 ft | 411 kts | 50° |
| 2026-04-21 03:49 | -35.22627 | -60.01504 | 26342 ft | 408 kts | 50° |
| 2026-04-21 03:49 | -35.21126 | -59.98575 | 25964 ft | 405 kts | 50° |
| 2026-04-21 03:49 | -35.19655 | -59.95708 | 25581 ft | 402 kts | 50° |
| 2026-04-21 03:49 | -35.18156 | -59.92789 | 25203 ft | 399 kts | 50° |
| 2026-04-21 03:50 | -35.16683 | -59.89922 | 24822 ft | 397 kts | 50° |
| 2026-04-21 03:50 | -35.15217 | -59.87069 | 24423 ft | 395 kts | 50° |
| 2026-04-21 03:50 | -35.13762 | -59.84241 | 24067 ft | 392 kts | 50° |
| 2026-04-21 03:50 | -35.12317 | -59.81434 | 23699 ft | 390 kts | 51° |
| 2026-04-21 03:51 | -35.10878 | -59.78641 | 23272 ft | 387 kts | 51° |
| 2026-04-21 03:51 | -35.09445 | -59.75863 | 22862 ft | 385 kts | 51° |
| 2026-04-21 03:51 | -35.08028 | -59.73115 | 22475 ft | 381 kts | 51° |
| 2026-04-21 03:51 | -35.06622 | -59.70392 | 22100 ft | 377 kts | 51° |
| 2026-04-21 03:52 | -35.05229 | -59.67695 | 21730 ft | 374 kts | 51° |
| 2026-04-21 03:52 | -35.03845 | -59.65020 | 21366 ft | 371 kts | 51° |
| 2026-04-21 03:52 | -35.02544 | -59.62297 | 20998 ft | 374 kts | 62° |
| 2026-04-21 03:52 | -35.01887 | -59.59227 | 20844 ft | 372 kts | 74° |
| 2026-04-21 03:53 | -35.01373 | -59.56192 | 20504 ft | 369 kts | 74° |
| 2026-04-21 03:53 | -35.00847 | -59.53137 | 20167 ft | 367 kts | 74° |
| 2026-04-21 03:53 | -35.00316 | -59.50104 | 19815 ft | 365 kts | 74° |
| 2026-04-21 03:53 | -34.99779 | -59.47087 | 19458 ft | 364 kts | 73° |
| 2026-04-21 03:54 | -34.99230 | -59.44034 | 19100 ft | 362 kts | 74° |
| 2026-04-21 03:54 | -34.98689 | -59.41045 | 18746 ft | 361 kts | 74° |
| 2026-04-21 03:54 | -34.98153 | -59.38091 | 18367 ft | 361 kts | 74° |
| 2026-04-21 03:54 | -34.97609 | -59.35107 | 17966 ft | 360 kts | 74° |
| 2026-04-21 03:55 | -34.97067 | -59.32133 | 17587 ft | 358 kts | 74° |
| 2026-04-21 03:55 | -34.96528 | -59.29179 | 17218 ft | 356 kts | 75° |
| 2026-04-21 03:55 | -34.95989 | -59.26231 | 16853 ft | 354 kts | 75° |
| 2026-04-21 03:55 | -34.95462 | -59.23347 | 16495 ft | 352 kts | 75° |
| 2026-04-21 03:56 | -34.94930 | -59.20446 | 16146 ft | 350 kts | 75° |
| 2026-04-21 03:56 | -34.94399 | -59.17554 | 15792 ft | 348 kts | 75° |
| 2026-04-21 03:56 | -34.93870 | -59.14677 | 15440 ft | 347 kts | 75° |
| 2026-04-21 03:56 | -34.93344 | -59.11816 | 15092 ft | 345 kts | 76° |
| 2026-04-21 03:57 | -34.92819 | -59.08970 | 14750 ft | 344 kts | 76° |
| 2026-04-21 03:57 | -34.92295 | -59.06125 | 14392 ft | 343 kts | 76° |
| 2026-04-21 03:57 | -34.91770 | -59.03289 | 14039 ft | 343 kts | 76° |
| 2026-04-21 03:57 | -34.91207 | -59.00477 | 13637 ft | 341 kts | 69° |
| 2026-04-21 03:58 | -34.90009 | -58.98028 | 13240 ft | 335 kts | 44° |
| 2026-04-21 03:58 | -34.88231 | -58.96231 | 12821 ft | 328 kts | 33° |
| 2026-04-21 03:58 | -34.86434 | -58.94651 | 12718 ft | 310 kts | 33° |
| 2026-04-21 03:58 | -34.84728 | -58.93156 | 12519 ft | 297 kts | 33° |
| 2026-04-21 03:59 | -34.83060 | -58.91700 | 12083 ft | 294 kts | 33° |
| 2026-04-21 03:59 | -34.81398 | -58.90252 | 11588 ft | 293 kts | 33° |
| 2026-04-21 03:59 | -34.79745 | -58.88813 | 11157 ft | 291 kts | 33° |
| 2026-04-21 04:00 | -34.76481 | -58.85969 | 10307 ft | 286 kts | 33° |
| 2026-04-21 04:00 | -34.74867 | -58.84563 | 9880 ft | 284 kts | 33° |
| 2026-04-21 04:00 | -34.73265 | -58.83167 | 9419 ft | 282 kts | 33° |
| 2026-04-21 04:00 | -34.71678 | -58.81785 | 8990 ft | 279 kts | 33° |
| 2026-04-21 04:01 | -34.70107 | -58.80417 | 8574 ft | 276 kts | 34° |
| 2026-04-21 04:01 | -34.68556 | -58.79067 | 8153 ft | 273 kts | 33° |
| 2026-04-21 04:01 | -34.67018 | -58.77730 | 7746 ft | 270 kts | 33° |
| 2026-04-21 04:01 | -34.65493 | -58.76404 | 7332 ft | 268 kts | 33° |
| 2026-04-21 04:02 | -34.63985 | -58.75094 | 6931 ft | 266 kts | 34° |
| 2026-04-21 04:02 | -34.62492 | -58.73797 | 6558 ft | 262 kts | 34° |
| 2026-04-21 04:02 | -34.61019 | -58.72518 | 6157 ft | 259 kts | 34° |
| 2026-04-21 04:02 | -34.59563 | -58.71254 | 5738 ft | 256 kts | 34° |
| 2026-04-21 04:03 | -34.58129 | -58.69988 | 5323 ft | 254 kts | 39° |
| 2026-04-21 04:03 | -34.57119 | -58.68268 | 4998 ft | 251 kts | 64° |
| 2026-04-21 04:03 | -34.56450 | -58.66358 | 4778 ft | 241 kts | 64° |
| 2026-04-21 04:03 | -34.55791 | -58.64525 | 4518 ft | 232 kts | 64° |
| 2026-04-21 04:04 | -34.55152 | -58.62802 | 4318 ft | 223 kts | 63° |
| 2026-04-21 04:04 | -34.54514 | -58.61117 | 4184 ft | 208 kts | 63° |
| 2026-04-21 04:04 | -34.53935 | -58.59606 | 4034 ft | 187 kts | 62° |
| 2026-04-21 04:04 | -34.53413 | -58.58259 | 3766 ft | 175 kts | 62° |
| 2026-04-21 04:05 | -34.52892 | -58.56920 | 3354 ft | 169 kts | 61° |
| 2026-04-21 04:05 | -34.52406 | -58.55676 | 3039 ft | 160 kts | 61° |
| 2026-04-21 04:05 | -34.51935 | -58.54473 | 2666 ft | 156 kts | 61° |
| 2026-04-21 04:05 | -34.51477 | -58.53304 | 2289 ft | 152 kts | 61° |
| 2026-04-21 04:06 | -34.51032 | -58.52161 | 1882 ft | 149 kts | 63° |
| 2026-04-21 04:06 | -34.50961 | -58.50914 | 1632 ft | 157 kts | 110° |
| 2026-04-21 04:06 | -34.51540 | -58.49766 | 1460 ft | 164 kts | 111° |
| 2026-04-21 04:06 | -34.52063 | -58.48534 | 1265 ft | 158 kts | 114° |
| 2026-04-21 04:07 | -34.52648 | -58.47479 | 1044 ft | 147 kts | 116° |
| 2026-04-21 04:07 | -34.53193 | -58.46507 | 839 ft | 132 kts | 117° |
| 2026-04-21 04:07 | -34.53688 | -58.45613 | 673 ft | 126 kts | 118° |
| 2026-04-21 04:07 | -34.54209 | -58.44673 | 488 ft | 138 kts | 117° |
| 2026-04-21 04:08 | -34.54725 | -58.43713 | 299 ft | 138 kts | 119° |
| 2026-04-21 04:08 | -34.55262 | -58.42757 | 97 ft | 133 kts | 120° |
| 2026-04-21 04:08 | -34.55746 | -58.41900 | 30 ft | 111 kts | 120° |
| 2026-04-21 04:08 | -34.56057 | -58.41334 | 26 ft | 49 kts | 124° |
| 2026-04-21 04:09 | -34.56190 | -58.41088 | 27 ft | 25 kts | 112° |
| 2026-04-21 04:09 | -34.56233 | -58.40920 | 24 ft | 5 kts | 96° |
| 2026-04-21 04:09 | -34.56234 | -58.40876 | 24 ft | 5 kts | 91° |
| 2026-04-21 04:09 | -34.56235 | -58.40831 | 24 ft | 5 kts | 91° |
| 2026-04-21 04:10 | -34.56228 | -58.40814 | 26 ft | 2 kts | 13° |
| 2026-04-21 04:10 | -34.56215 | -58.40818 | 29 ft | 3 kts | 335° |
| 2026-04-21 04:10 | -34.56192 | -58.40845 | 26 ft | 6 kts | 307° |
| 2026-04-21 04:10 | -34.56172 | -58.40886 | 26 ft | 6 kts | 298° |
| 2026-04-21 04:11 | -34.56152 | -58.40928 | 25 ft | 6 kts | 300° |
| 2026-04-21 04:11 | -34.56132 | -58.40967 | 28 ft | 5 kts | 304° |
| 2026-04-21 04:11 | -34.56111 | -58.41004 | 25 ft | 5 kts | 306° |
| 2026-04-21 04:11 | -34.56088 | -58.41040 | 25 ft | 5 kts | 308° |
| 2026-04-21 04:12 | -34.56066 | -58.41075 | 26 ft | 5 kts | 308° |
| 2026-04-21 04:12 | -34.56044 | -58.41110 | 24 ft | 5 kts | 307° |
| 2026-04-21 04:12 | -34.56022 | -58.41144 | 25 ft | 5 kts | 308° |
| 2026-04-21 04:12 | -34.56001 | -58.41178 | 27 ft | 5 kts | 307° |
| 2026-04-21 04:13 | -34.55980 | -58.41212 | 25 ft | 5 kts | 307° |
| 2026-04-21 04:13 | -34.55957 | -58.41247 | 28 ft | 5 kts | 307° |
| 2026-04-21 04:13 | -34.55936 | -58.41283 | 24 ft | 5 kts | 305° |
| 2026-04-21 04:13 | -34.55912 | -58.41312 | 26 ft | 5 kts | 346° |
| 2026-04-21 04:14 | -34.55879 | -58.41293 | 27 ft | 5 kts | 31° |
| 2026-04-21 04:14 | -34.55848 | -58.41276 | 28 ft | 3 kts | 6° |
| 2026-04-21 04:14 | -34.55834 | -58.41288 | 24 ft | 4 kts | 311° |
| 2026-04-21 04:14 | -34.55811 | -58.41331 | 26 ft | 7 kts | 302° |
| 2026-04-21 04:15 | -34.55790 | -58.41371 | 27 ft | 5 kts | 303° |
| 2026-04-21 04:15 | -34.55769 | -58.41408 | 25 ft | 5 kts | 305° |
| 2026-04-21 04:15 | -34.55756 | -58.41425 | 26 ft | 3 kts | 329° |
| 2026-04-21 04:15 | -34.55737 | -58.41418 | 26 ft | 3 kts | 32° |
| 2026-04-21 04:16 | -34.55720 | -58.41406 | 24 ft | 2 kts | 32° |
| 2026-04-21 04:16 | -34.55718 | -58.41404 | 24 ft | 0 kts | 32° |